sensor_id;sensor_type;location;lat;lon;timestamp;pressure;altitude;pressure_sealevel;temperature
65823;BMP180;52585;47.566;19.056;2022-07-22T00:01:26;100503.20;;;25.92
65823;BMP180;52585;47.566;19.056;2022-07-22T00:03:58;100501.00;;;25.90
65823;BMP180;52585;47.566;19.056;2022-07-22T00:06:26;100502.40;;;25.90
65823;BMP180;52585;47.566;19.056;2022-07-22T00:08:52;100507.60;;;25.88
65823;BMP180;52585;47.566;19.056;2022-07-22T00:11:17;100506.00;;;25.82
65823;BMP180;52585;47.566;19.056;2022-07-22T00:13:43;100499.20;;;25.80
65823;BMP180;52585;47.566;19.056;2022-07-22T00:16:10;100497.40;;;25.80
65823;BMP180;52585;47.566;19.056;2022-07-22T00:18:36;100493.40;;;25.74
65823;BMP180;52585;47.566;19.056;2022-07-22T00:21:02;100493.20;;;25.70
65823;BMP180;52585;47.566;19.056;2022-07-22T00:23:27;100491.80;;;25.70
65823;BMP180;52585;47.566;19.056;2022-07-22T00:25:53;100496.40;;;25.70
65823;BMP180;52585;47.566;19.056;2022-07-22T00:28:19;100490.00;;;25.70
65823;BMP180;52585;47.566;19.056;2022-07-22T00:30:45;100492.60;;;25.60
65823;BMP180;52585;47.566;19.056;2022-07-22T00:33:11;100496.00;;;25.60
65823;BMP180;52585;47.566;19.056;2022-07-22T00:35:36;100497.80;;;25.60
65823;BMP180;52585;47.566;19.056;2022-07-22T00:38:02;100498.60;;;25.60
65823;BMP180;52585;47.566;19.056;2022-07-22T00:40:28;100497.20;;;25.50
65823;BMP180;52585;47.566;19.056;2022-07-22T00:42:54;100498.20;;;25.50
65823;BMP180;52585;47.566;19.056;2022-07-22T00:45:20;100504.20;;;25.50
65823;BMP180;52585;47.566;19.056;2022-07-22T00:47:45;100503.20;;;25.50
65823;BMP180;52585;47.566;19.056;2022-07-22T00:50:11;100499.40;;;25.40
65823;BMP180;52585;47.566;19.056;2022-07-22T00:52:37;100496.80;;;25.40
65823;BMP180;52585;47.566;19.056;2022-07-22T00:55:05;100497.60;;;25.40
65823;BMP180;52585;47.566;19.056;2022-07-22T00:57:31;100500.60;;;25.30
65823;BMP180;52585;47.566;19.056;2022-07-22T00:59:56;100504.00;;;25.30
65823;BMP180;52585;47.566;19.056;2022-07-22T01:02:24;100503.40;;;25.30
65823;BMP180;52585;47.566;19.056;2022-07-22T01:04:49;100504.80;;;25.30
65823;BMP180;52585;47.566;19.056;2022-07-22T01:07:15;100505.40;;;25.24
65823;BMP180;52585;47.566;19.056;2022-07-22T01:09:45;100506.20;;;25.20
65823;BMP180;52585;47.566;19.056;2022-07-22T01:12:11;100509.20;;;25.20
65823;BMP180;52585;47.566;19.056;2022-07-22T01:14:38;100503.60;;;25.18
65823;BMP180;52585;47.566;19.056;2022-07-22T01:17:05;100502.60;;;25.10
65823;BMP180;52585;47.566;19.056;2022-07-22T01:19:30;100500.20;;;25.10
65823;BMP180;52585;47.566;19.056;2022-07-22T01:21:56;100504.60;;;25.00
65823;BMP180;52585;47.566;19.056;2022-07-22T01:24:22;100506.20;;;25.00
65823;BMP180;52585;47.566;19.056;2022-07-22T01:26:48;100507.60;;;25.00
65823;BMP180;52585;47.566;19.056;2022-07-22T01:29:13;100504.80;;;25.00
65823;BMP180;52585;47.566;19.056;2022-07-22T01:31:39;100505.40;;;25.00
65823;BMP180;52585;47.566;19.056;2022-07-22T01:34:05;100499.40;;;25.00
65823;BMP180;52585;47.566;19.056;2022-07-22T01:36:30;100499.00;;;25.00
65823;BMP180;52585;47.566;19.056;2022-07-22T01:38:56;100495.00;;;25.00
65823;BMP180;52585;47.566;19.056;2022-07-22T01:41:22;100497.80;;;25.00
65823;BMP180;52585;47.566;19.056;2022-07-22T01:43:47;100492.80;;;25.00
65823;BMP180;52585;47.566;19.056;2022-07-22T01:46:13;100497.80;;;24.94
65823;BMP180;52585;47.566;19.056;2022-07-22T01:48:40;100498.00;;;24.90
65823;BMP180;52585;47.566;19.056;2022-07-22T01:51:06;100496.00;;;24.90
65823;BMP180;52585;47.566;19.056;2022-07-22T01:53:32;100498.40;;;24.90
65823;BMP180;52585;47.566;19.056;2022-07-22T01:55:58;100497.20;;;24.90
65823;BMP180;52585;47.566;19.056;2022-07-22T01:58:24;100491.60;;;24.80
65823;BMP180;52585;47.566;19.056;2022-07-22T02:00:49;100489.60;;;24.80
65823;BMP180;52585;47.566;19.056;2022-07-22T02:03:15;100488.20;;;24.80
65823;BMP180;52585;47.566;19.056;2022-07-22T02:05:40;100490.40;;;24.76
65823;BMP180;52585;47.566;19.056;2022-07-22T02:08:09;100497.00;;;24.72
65823;BMP180;52585;47.566;19.056;2022-07-22T02:10:36;100499.60;;;24.70
65823;BMP180;52585;47.566;19.056;2022-07-22T02:13:04;100503.00;;;24.70
65823;BMP180;52585;47.566;19.056;2022-07-22T02:15:30;100507.60;;;24.70
65823;BMP180;52585;47.566;19.056;2022-07-22T02:17:56;100512.20;;;24.70
65823;BMP180;52585;47.566;19.056;2022-07-22T02:20:22;100517.20;;;24.70
65823;BMP180;52585;47.566;19.056;2022-07-22T02:22:48;100517.40;;;24.70
65823;BMP180;52585;47.566;19.056;2022-07-22T02:25:16;100522.00;;;24.64
65823;BMP180;52585;47.566;19.056;2022-07-22T02:27:47;100522.80;;;24.60
65823;BMP180;52585;47.566;19.056;2022-07-22T02:30:12;100524.40;;;24.60
65823;BMP180;52585;47.566;19.056;2022-07-22T02:32:38;100535.00;;;24.60
65823;BMP180;52585;47.566;19.056;2022-07-22T02:35:05;100536.60;;;24.60
65823;BMP180;52585;47.566;19.056;2022-07-22T02:37:31;100531.00;;;24.58
65823;BMP180;52585;47.566;19.056;2022-07-22T02:39:57;100524.40;;;24.50
65823;BMP180;52585;47.566;19.056;2022-07-22T02:42:22;100526.20;;;24.50
65823;BMP180;52585;47.566;19.056;2022-07-22T02:44:48;100531.60;;;24.50
65823;BMP180;52585;47.566;19.056;2022-07-22T02:47:14;100529.40;;;24.40
65823;BMP180;52585;47.566;19.056;2022-07-22T02:49:40;100528.60;;;24.40
65823;BMP180;52585;47.566;19.056;2022-07-22T02:52:05;100524.00;;;24.38
65823;BMP180;52585;47.566;19.056;2022-07-22T02:55:00;100524.20;;;24.30
65823;BMP180;52585;47.566;19.056;2022-07-22T02:57:32;100526.00;;;24.30
65823;BMP180;52585;47.566;19.056;2022-07-22T02:59:57;100523.80;;;24.28
65823;BMP180;52585;47.566;19.056;2022-07-22T03:02:23;100527.80;;;24.20
65823;BMP180;52585;47.566;19.056;2022-07-22T03:04:49;100530.00;;;24.20
65823;BMP180;52585;47.566;19.056;2022-07-22T03:07:14;100529.40;;;24.20
65823;BMP180;52585;47.566;19.056;2022-07-22T03:09:40;100531.20;;;24.10
65823;BMP180;52585;47.566;19.056;2022-07-22T03:12:05;100527.60;;;24.10
65823;BMP180;52585;47.566;19.056;2022-07-22T03:14:31;100535.00;;;24.10
65823;BMP180;52585;47.566;19.056;2022-07-22T03:16:57;100531.20;;;24.10
65823;BMP180;52585;47.566;19.056;2022-07-22T03:19:22;100535.60;;;24.00
65823;BMP180;52585;47.566;19.056;2022-07-22T03:21:48;100535.20;;;24.00
65823;BMP180;52585;47.566;19.056;2022-07-22T03:24:13;100543.20;;;24.00
65823;BMP180;52585;47.566;19.056;2022-07-22T03:26:39;100543.80;;;24.00
65823;BMP180;52585;47.566;19.056;2022-07-22T03:29:04;100541.60;;;23.90
65823;BMP180;52585;47.566;19.056;2022-07-22T03:31:30;100541.60;;;23.90
65823;BMP180;52585;47.566;19.056;2022-07-22T03:33:55;100546.40;;;23.90
65823;BMP180;52585;47.566;19.056;2022-07-22T03:36:21;100544.00;;;23.90
65823;BMP180;52585;47.566;19.056;2022-07-22T03:38:46;100548.80;;;23.90
65823;BMP180;52585;47.566;19.056;2022-07-22T03:41:12;100549.60;;;23.80
65823;BMP180;52585;47.566;19.056;2022-07-22T03:43:38;100550.80;;;23.80
65823;BMP180;52585;47.566;19.056;2022-07-22T03:46:03;100549.40;;;23.80
65823;BMP180;52585;47.566;19.056;2022-07-22T03:48:29;100544.80;;;23.80
65823;BMP180;52585;47.566;19.056;2022-07-22T03:50:55;100542.00;;;23.80
65823;BMP180;52585;47.566;19.056;2022-07-22T03:53:20;100545.20;;;23.76
65823;BMP180;52585;47.566;19.056;2022-07-22T03:55:46;100547.00;;;23.76
65823;BMP180;52585;47.566;19.056;2022-07-22T03:58:12;100549.00;;;23.70
65823;BMP180;52585;47.566;19.056;2022-07-22T04:00:37;100545.40;;;23.70
65823;BMP180;52585;47.566;19.056;2022-07-22T04:03:03;100542.80;;;23.70
65823;BMP180;52585;47.566;19.056;2022-07-22T04:05:28;100548.40;;;23.70
65823;BMP180;52585;47.566;19.056;2022-07-22T04:07:54;100551.20;;;23.70
65823;BMP180;52585;47.566;19.056;2022-07-22T04:10:20;100553.00;;;23.70
65823;BMP180;52585;47.566;19.056;2022-07-22T04:12:46;100552.20;;;23.70
65823;BMP180;52585;47.566;19.056;2022-07-22T04:15:11;100552.40;;;23.70
65823;BMP180;52585;47.566;19.056;2022-07-22T04:17:37;100552.00;;;23.70
65823;BMP180;52585;47.566;19.056;2022-07-22T04:20:03;100550.60;;;23.70
65823;BMP180;52585;47.566;19.056;2022-07-22T04:22:29;100550.80;;;23.70
65823;BMP180;52585;47.566;19.056;2022-07-22T04:24:55;100549.00;;;23.70
65823;BMP180;52585;47.566;19.056;2022-07-22T04:27:22;100547.80;;;23.70
65823;BMP180;52585;47.566;19.056;2022-07-22T04:29:49;100548.20;;;23.70
65823;BMP180;52585;47.566;19.056;2022-07-22T04:32:14;100546.40;;;23.70
65823;BMP180;52585;47.566;19.056;2022-07-22T04:34:40;100544.60;;;23.72
65823;BMP180;52585;47.566;19.056;2022-07-22T04:37:07;100541.80;;;23.80
65823;BMP180;52585;47.566;19.056;2022-07-22T04:39:34;100542.00;;;23.80
65823;BMP180;52585;47.566;19.056;2022-07-22T04:41:59;100543.80;;;23.80
65823;BMP180;52585;47.566;19.056;2022-07-22T04:44:25;100543.40;;;23.70
65823;BMP180;52585;47.566;19.056;2022-07-22T04:46:51;100547.00;;;23.70
65823;BMP180;52585;47.566;19.056;2022-07-22T04:49:16;100544.80;;;23.70
65823;BMP180;52585;47.566;19.056;2022-07-22T04:51:42;100540.40;;;23.60
65823;BMP180;52585;47.566;19.056;2022-07-22T04:54:14;100539.60;;;23.60
65823;BMP180;52585;47.566;19.056;2022-07-22T04:56:39;100543.00;;;23.60
65823;BMP180;52585;47.566;19.056;2022-07-22T04:59:05;100542.40;;;23.60
65823;BMP180;52585;47.566;19.056;2022-07-22T05:01:31;100542.20;;;23.60
65823;BMP180;52585;47.566;19.056;2022-07-22T05:03:56;100545.80;;;23.60
65823;BMP180;52585;47.566;19.056;2022-07-22T05:06:22;100539.40;;;23.60
65823;BMP180;52585;47.566;19.056;2022-07-22T05:08:47;100543.20;;;23.60
65823;BMP180;52585;47.566;19.056;2022-07-22T05:11:13;100546.40;;;23.62
65823;BMP180;52585;47.566;19.056;2022-07-22T05:13:39;100548.20;;;23.70
65823;BMP180;52585;47.566;19.056;2022-07-22T05:16:06;100549.00;;;23.70
65823;BMP180;52585;47.566;19.056;2022-07-22T05:18:32;100548.00;;;23.76
65823;BMP180;52585;47.566;19.056;2022-07-22T05:20:58;100548.80;;;23.80
65823;BMP180;52585;47.566;19.056;2022-07-22T05:23:24;100547.60;;;23.90
65823;BMP180;52585;47.566;19.056;2022-07-22T05:25:49;100550.00;;;23.90
65823;BMP180;52585;47.566;19.056;2022-07-22T05:28:15;100550.20;;;24.00
65823;BMP180;52585;47.566;19.056;2022-07-22T05:30:40;100555.20;;;24.00
65823;BMP180;52585;47.566;19.056;2022-07-22T05:33:06;100557.20;;;24.10
65823;BMP180;52585;47.566;19.056;2022-07-22T05:35:31;100553.40;;;24.20
65823;BMP180;52585;47.566;19.056;2022-07-22T05:37:57;100558.80;;;24.20
65823;BMP180;52585;47.566;19.056;2022-07-22T05:40:23;100556.00;;;24.30
65823;BMP180;52585;47.566;19.056;2022-07-22T05:42:48;100557.60;;;24.34
65823;BMP180;52585;47.566;19.056;2022-07-22T05:45:14;100559.40;;;24.40
65823;BMP180;52585;47.566;19.056;2022-07-22T05:47:40;100559.20;;;24.50
65823;BMP180;52585;47.566;19.056;2022-07-22T05:50:07;100560.20;;;24.50
65823;BMP180;52585;47.566;19.056;2022-07-22T05:52:36;100566.00;;;24.60
65823;BMP180;52585;47.566;19.056;2022-07-22T05:55:03;100566.60;;;24.66
65823;BMP180;52585;47.566;19.056;2022-07-22T05:57:28;100565.20;;;24.70
65823;BMP180;52585;47.566;19.056;2022-07-22T05:59:54;100561.00;;;24.74
65823;BMP180;52585;47.566;19.056;2022-07-22T06:02:20;100565.40;;;24.80
65823;BMP180;52585;47.566;19.056;2022-07-22T06:04:46;100564.00;;;24.80
65823;BMP180;52585;47.566;19.056;2022-07-22T06:07:12;100569.00;;;24.90
65823;BMP180;52585;47.566;19.056;2022-07-22T06:09:37;100569.00;;;24.92
65823;BMP180;52585;47.566;19.056;2022-07-22T06:12:04;100572.40;;;25.00
65823;BMP180;52585;47.566;19.056;2022-07-22T06:14:30;100576.80;;;25.08
65823;BMP180;52585;47.566;19.056;2022-07-22T06:16:55;100572.20;;;25.10
65823;BMP180;52585;47.566;19.056;2022-07-22T06:19:21;100566.00;;;25.20
65823;BMP180;52585;47.566;19.056;2022-07-22T06:21:46;100568.20;;;25.20
65823;BMP180;52585;47.566;19.056;2022-07-22T06:24:12;100568.40;;;25.30
65823;BMP180;52585;47.566;19.056;2022-07-22T06:26:37;100570.80;;;25.30
65823;BMP180;52585;47.566;19.056;2022-07-22T06:29:03;100567.60;;;25.40
65823;BMP180;52585;47.566;19.056;2022-07-22T06:31:28;100563.80;;;25.40
65823;BMP180;52585;47.566;19.056;2022-07-22T06:33:54;100571.20;;;25.50
65823;BMP180;52585;47.566;19.056;2022-07-22T06:36:19;100570.00;;;25.50
65823;BMP180;52585;47.566;19.056;2022-07-22T06:38:45;100568.80;;;25.60
65823;BMP180;52585;47.566;19.056;2022-07-22T06:41:11;100567.60;;;25.60
65823;BMP180;52585;47.566;19.056;2022-07-22T06:43:39;100569.40;;;25.70
65823;BMP180;52585;47.566;19.056;2022-07-22T06:46:05;100570.40;;;25.70
65823;BMP180;52585;47.566;19.056;2022-07-22T06:48:31;100576.00;;;25.80
65823;BMP180;52585;47.566;19.056;2022-07-22T06:50:56;100573.40;;;25.80
65823;BMP180;52585;47.566;19.056;2022-07-22T06:53:22;100573.60;;;25.90
65823;BMP180;52585;47.566;19.056;2022-07-22T06:55:48;100567.40;;;25.90
65823;BMP180;52585;47.566;19.056;2022-07-22T06:58:14;100569.20;;;26.00
65823;BMP180;52585;47.566;19.056;2022-07-22T07:00:39;100571.60;;;26.02
65823;BMP180;52585;47.566;19.056;2022-07-22T07:03:05;100567.80;;;26.10
65823;BMP180;52585;47.566;19.056;2022-07-22T07:05:30;100567.80;;;26.10
65823;BMP180;52585;47.566;19.056;2022-07-22T07:07:56;100567.60;;;26.20
65823;BMP180;52585;47.566;19.056;2022-07-22T07:10:22;100569.60;;;26.22
65823;BMP180;52585;47.566;19.056;2022-07-22T07:12:48;100566.80;;;26.30
65823;BMP180;52585;47.566;19.056;2022-07-22T07:15:14;100566.80;;;26.30
65823;BMP180;52585;47.566;19.056;2022-07-22T07:17:39;100562.20;;;26.40
65823;BMP180;52585;47.566;19.056;2022-07-22T07:20:06;100563.80;;;26.40
65823;BMP180;52585;47.566;19.056;2022-07-22T07:22:33;100563.20;;;26.50
65823;BMP180;52585;47.566;19.056;2022-07-22T07:25:04;100565.20;;;26.50
65823;BMP180;52585;47.566;19.056;2022-07-22T07:27:30;100561.60;;;26.52
65823;BMP180;52585;47.566;19.056;2022-07-22T07:29:56;100559.80;;;26.60
65823;BMP180;52585;47.566;19.056;2022-07-22T07:32:21;100564.00;;;26.60
65823;BMP180;52585;47.566;19.056;2022-07-22T07:34:47;100559.60;;;26.70
65823;BMP180;52585;47.566;19.056;2022-07-22T07:37:13;100557.00;;;26.70
65823;BMP180;52585;47.566;19.056;2022-07-22T07:39:39;100556.80;;;26.80
65823;BMP180;52585;47.566;19.056;2022-07-22T07:42:04;100559.40;;;26.80
65823;BMP180;52585;47.566;19.056;2022-07-22T07:44:30;100556.40;;;26.90
65823;BMP180;52585;47.566;19.056;2022-07-22T07:46:55;100556.40;;;26.90
65823;BMP180;52585;47.566;19.056;2022-07-22T07:49:21;100554.60;;;27.00
65823;BMP180;52585;47.566;19.056;2022-07-22T07:51:47;100553.40;;;27.04
65823;BMP180;52585;47.566;19.056;2022-07-22T07:54:12;100554.80;;;27.10
65823;BMP180;52585;47.566;19.056;2022-07-22T07:56:38;100552.40;;;27.20
65823;BMP180;52585;47.566;19.056;2022-07-22T07:59:04;100551.20;;;27.30
65823;BMP180;52585;47.566;19.056;2022-07-22T08:01:30;100551.60;;;27.30
65823;BMP180;52585;47.566;19.056;2022-07-22T08:03:56;100553.80;;;27.40
65823;BMP180;52585;47.566;19.056;2022-07-22T08:06:21;100552.60;;;27.50
65823;BMP180;52585;47.566;19.056;2022-07-22T08:08:47;100549.60;;;27.50
65823;BMP180;52585;47.566;19.056;2022-07-22T08:11:13;100548.60;;;27.60
65823;BMP180;52585;47.566;19.056;2022-07-22T08:13:38;100548.60;;;27.66
65823;BMP180;52585;47.566;19.056;2022-07-22T08:16:04;100548.80;;;27.70
65823;BMP180;52585;47.566;19.056;2022-07-22T08:18:30;100544.00;;;27.78
65823;BMP180;52585;47.566;19.056;2022-07-22T08:20:56;100545.00;;;27.84
65823;BMP180;52585;47.566;19.056;2022-07-22T08:23:22;100540.80;;;27.90
65823;BMP180;52585;47.566;19.056;2022-07-22T08:25:48;100537.20;;;28.04
65823;BMP180;52585;47.566;19.056;2022-07-22T08:28:14;100539.60;;;28.10
65823;BMP180;52585;47.566;19.056;2022-07-22T08:30:39;100537.40;;;28.20
65823;BMP180;52585;47.566;19.056;2022-07-22T08:33:06;100538.20;;;28.20
65823;BMP180;52585;47.566;19.056;2022-07-22T08:35:32;100536.40;;;28.30
65823;BMP180;52585;47.566;19.056;2022-07-22T08:37:58;100542.80;;;28.30
65823;BMP180;52585;47.566;19.056;2022-07-22T08:40:25;100542.20;;;28.40
65823;BMP180;52585;47.566;19.056;2022-07-22T08:42:51;100544.80;;;28.40
65823;BMP180;52585;47.566;19.056;2022-07-22T08:45:18;100545.60;;;28.42
65823;BMP180;52585;47.566;19.056;2022-07-22T08:47:50;100543.20;;;28.50
65823;BMP180;52585;47.566;19.056;2022-07-22T08:50:17;100540.40;;;28.50
65823;BMP180;52585;47.566;19.056;2022-07-22T08:52:43;100546.80;;;28.60
65823;BMP180;52585;47.566;19.056;2022-07-22T08:55:09;100543.00;;;28.60
65823;BMP180;52585;47.566;19.056;2022-07-22T08:57:35;100540.00;;;28.60
65823;BMP180;52585;47.566;19.056;2022-07-22T09:00:10;100543.20;;;28.70
65823;BMP180;52585;47.566;19.056;2022-07-22T09:02:39;100543.00;;;28.70
65823;BMP180;52585;47.566;19.056;2022-07-22T09:05:10;100542.00;;;28.80
65823;BMP180;52585;47.566;19.056;2022-07-22T09:07:39;100543.40;;;28.80
65823;BMP180;52585;47.566;19.056;2022-07-22T09:10:15;100544.20;;;28.88
65823;BMP180;52585;47.566;19.056;2022-07-22T09:12:54;100538.60;;;28.90
65823;BMP180;52585;47.566;19.056;2022-07-22T09:15:33;100537.80;;;28.90
65823;BMP180;52585;47.566;19.056;2022-07-22T09:18:02;100535.60;;;28.98
65823;BMP180;52585;47.566;19.056;2022-07-22T09:20:29;100533.20;;;29.00
65823;BMP180;52585;47.566;19.056;2022-07-22T09:22:56;100528.60;;;29.10
65823;BMP180;52585;47.566;19.056;2022-07-22T09:28:21;100523.00;;;29.20
65823;BMP180;52585;47.566;19.056;2022-07-22T09:30:52;100526.00;;;29.22
65823;BMP180;52585;47.566;19.056;2022-07-22T09:33:19;100527.40;;;29.30
65823;BMP180;52585;47.566;19.056;2022-07-22T09:35:47;100528.60;;;29.32
65823;BMP180;52585;47.566;19.056;2022-07-22T09:38:16;100526.60;;;29.40
65823;BMP180;52585;47.566;19.056;2022-07-22T09:40:47;100523.40;;;29.42
65823;BMP180;52585;47.566;19.056;2022-07-22T09:43:17;100524.60;;;29.50
65823;BMP180;52585;47.566;19.056;2022-07-22T09:45:54;100517.60;;;29.50
65823;BMP180;52585;47.566;19.056;2022-07-22T09:48:23;100517.40;;;29.60
65823;BMP180;52585;47.566;19.056;2022-07-22T09:50:52;100518.80;;;29.68
65823;BMP180;52585;47.566;19.056;2022-07-22T09:53:22;100515.00;;;29.70
65823;BMP180;52585;47.566;19.056;2022-07-22T09:55:49;100519.20;;;29.76
65823;BMP180;52585;47.566;19.056;2022-07-22T09:58:16;100518.40;;;29.80
65823;BMP180;52585;47.566;19.056;2022-07-22T10:00:43;100514.20;;;29.86
65823;BMP180;52585;47.566;19.056;2022-07-22T10:03:18;100511.40;;;29.90
65823;BMP180;52585;47.566;19.056;2022-07-22T10:05:46;100509.80;;;30.00
65823;BMP180;52585;47.566;19.056;2022-07-22T10:08:12;100502.60;;;30.00
65823;BMP180;52585;47.566;19.056;2022-07-22T10:10:39;100503.60;;;30.00
65823;BMP180;52585;47.566;19.056;2022-07-22T10:13:07;100498.20;;;30.00
65823;BMP180;52585;47.566;19.056;2022-07-22T10:15:34;100496.60;;;30.10
65823;BMP180;52585;47.566;19.056;2022-07-22T10:18:07;100495.20;;;30.10
65823;BMP180;52585;47.566;19.056;2022-07-22T10:20:34;100496.20;;;30.10
65823;BMP180;52585;47.566;19.056;2022-07-22T10:23:05;100491.40;;;30.12
65823;BMP180;52585;47.566;19.056;2022-07-22T10:25:50;100485.80;;;30.20
65823;BMP180;52585;47.566;19.056;2022-07-22T10:28:27;100483.40;;;30.20
65823;BMP180;52585;47.566;19.056;2022-07-22T10:31:27;100485.80;;;30.20
65823;BMP180;52585;47.566;19.056;2022-07-22T10:33:53;100484.40;;;30.30
65823;BMP180;52585;47.566;19.056;2022-07-22T10:36:35;100486.80;;;30.30
65823;BMP180;52585;47.566;19.056;2022-07-22T10:39:12;100485.80;;;30.30
65823;BMP180;52585;47.566;19.056;2022-07-22T10:41:42;100485.00;;;30.30
65823;BMP180;52585;47.566;19.056;2022-07-22T10:44:10;100483.80;;;30.40
65823;BMP180;52585;47.566;19.056;2022-07-22T10:46:54;100482.80;;;30.40
65823;BMP180;52585;47.566;19.056;2022-07-22T10:49:25;100475.20;;;30.50
65823;BMP180;52585;47.566;19.056;2022-07-22T10:54:33;100472.60;;;30.84
65823;BMP180;52585;47.566;19.056;2022-07-22T10:57:02;100469.80;;;31.00
65823;BMP180;52585;47.566;19.056;2022-07-22T10:59:28;100473.20;;;31.10
65823;BMP180;52585;47.566;19.056;2022-07-22T11:01:53;100466.00;;;31.20
65823;BMP180;52585;47.566;19.056;2022-07-22T11:04:24;100469.20;;;31.30
65823;BMP180;52585;47.566;19.056;2022-07-22T11:06:56;100462.60;;;31.40
65823;BMP180;52585;47.566;19.056;2022-07-22T11:09:32;100461.20;;;31.50
65823;BMP180;52585;47.566;19.056;2022-07-22T11:11:57;100457.60;;;31.60
65823;BMP180;52585;47.566;19.056;2022-07-22T11:16:56;100453.60;;;31.76
65823;BMP180;52585;47.566;19.056;2022-07-22T11:19:28;100454.40;;;31.80
65823;BMP180;52585;47.566;19.056;2022-07-22T11:22:04;100453.40;;;31.70
65823;BMP180;52585;47.566;19.056;2022-07-22T11:24:31;100448.80;;;31.62
65823;BMP180;52585;47.566;19.056;2022-07-22T11:26:59;100445.60;;;31.60
65823;BMP180;52585;47.566;19.056;2022-07-22T11:29:33;100438.80;;;31.70
65823;BMP180;52585;47.566;19.056;2022-07-22T11:32:02;100444.40;;;31.80
65823;BMP180;52585;47.566;19.056;2022-07-22T11:34:29;100440.00;;;31.90
65823;BMP180;52585;47.566;19.056;2022-07-22T11:36:56;100438.80;;;31.94
65823;BMP180;52585;47.566;19.056;2022-07-22T11:39:32;100434.60;;;32.00
65823;BMP180;52585;47.566;19.056;2022-07-22T11:41:59;100428.40;;;32.10
65823;BMP180;52585;47.566;19.056;2022-07-22T11:44:37;100431.80;;;32.20
65823;BMP180;52585;47.566;19.056;2022-07-22T11:47:05;100427.40;;;32.20
65823;BMP180;52585;47.566;19.056;2022-07-22T11:49:35;100420.40;;;32.22
65823;BMP180;52585;47.566;19.056;2022-07-22T11:52:05;100420.60;;;32.30
65823;BMP180;52585;47.566;19.056;2022-07-22T11:54:33;100420.40;;;32.36
65823;BMP180;52585;47.566;19.056;2022-07-22T11:56:59;100414.00;;;32.40
65823;BMP180;52585;47.566;19.056;2022-07-22T11:59:26;100411.00;;;32.50
65823;BMP180;52585;47.566;19.056;2022-07-22T12:01:52;100406.00;;;32.50
65823;BMP180;52585;47.566;19.056;2022-07-22T12:04:23;100407.00;;;32.60
65823;BMP180;52585;47.566;19.056;2022-07-22T12:06:51;100400.80;;;32.60
65823;BMP180;52585;47.566;19.056;2022-07-22T12:09:22;100399.80;;;32.70
65823;BMP180;52585;47.566;19.056;2022-07-22T12:11:53;100402.80;;;32.70
65823;BMP180;52585;47.566;19.056;2022-07-22T12:14:28;100397.80;;;32.70
65823;BMP180;52585;47.566;19.056;2022-07-22T12:17:01;100394.60;;;32.80
65823;BMP180;52585;47.566;19.056;2022-07-22T12:19:30;100387.20;;;32.80
65823;BMP180;52585;47.566;19.056;2022-07-22T12:22:07;100381.80;;;32.86
65823;BMP180;52585;47.566;19.056;2022-07-22T12:24:45;100381.80;;;32.90
65823;BMP180;52585;47.566;19.056;2022-07-22T12:27:17;100379.60;;;32.90
65823;BMP180;52585;47.566;19.056;2022-07-22T12:30:21;100375.60;;;32.90
65823;BMP180;52585;47.566;19.056;2022-07-22T12:32:47;100368.40;;;32.90
65823;BMP180;52585;47.566;19.056;2022-07-22T12:35:15;100363.80;;;32.88
65823;BMP180;52585;47.566;19.056;2022-07-22T12:37:44;100364.20;;;32.80
65823;BMP180;52585;47.566;19.056;2022-07-22T12:40:21;100364.00;;;32.80
65823;BMP180;52585;47.566;19.056;2022-07-22T12:43:05;100362.00;;;32.80
65823;BMP180;52585;47.566;19.056;2022-07-22T12:45:36;100357.00;;;32.80
65823;BMP180;52585;47.566;19.056;2022-07-22T12:53:17;100354.20;;;32.80
65823;BMP180;52585;47.566;19.056;2022-07-22T12:55:50;100355.20;;;32.80
65823;BMP180;52585;47.566;19.056;2022-07-22T12:58:17;100347.80;;;32.80
65823;BMP180;52585;47.566;19.056;2022-07-22T13:00:47;100344.00;;;32.78
65823;BMP180;52585;47.566;19.056;2022-07-22T13:03:13;100339.00;;;32.80
65823;BMP180;52585;47.566;19.056;2022-07-22T13:05:39;100337.40;;;32.80
65823;BMP180;52585;47.566;19.056;2022-07-22T13:08:07;100339.60;;;32.70
65823;BMP180;52585;47.566;19.056;2022-07-22T13:10:33;100333.60;;;32.70
65823;BMP180;52585;47.566;19.056;2022-07-22T13:12:58;100333.80;;;32.70
65823;BMP180;52585;47.566;19.056;2022-07-22T13:15:24;100326.60;;;32.70
65823;BMP180;52585;47.566;19.056;2022-07-22T13:17:51;100324.80;;;32.70
65823;BMP180;52585;47.566;19.056;2022-07-22T13:20:18;100319.60;;;32.70
65823;BMP180;52585;47.566;19.056;2022-07-22T13:22:45;100319.40;;;32.60
65823;BMP180;52585;47.566;19.056;2022-07-22T13:25:12;100320.80;;;32.60
65823;BMP180;52585;47.566;19.056;2022-07-22T13:27:38;100316.80;;;32.60
65823;BMP180;52585;47.566;19.056;2022-07-22T13:30:05;100318.60;;;32.60
65823;BMP180;52585;47.566;19.056;2022-07-22T13:32:31;100318.20;;;32.58
65823;BMP180;52585;47.566;19.056;2022-07-22T13:34:57;100314.00;;;32.58
65823;BMP180;52585;47.566;19.056;2022-07-22T13:37:23;100311.80;;;32.60
65823;BMP180;52585;47.566;19.056;2022-07-22T13:39:50;100303.00;;;32.60
65823;BMP180;52585;47.566;19.056;2022-07-22T13:42:17;100305.20;;;32.60
65823;BMP180;52585;47.566;19.056;2022-07-22T13:44:48;100306.60;;;32.66
65823;BMP180;52585;47.566;19.056;2022-07-22T13:47:15;100305.40;;;32.70
65823;BMP180;52585;47.566;19.056;2022-07-22T13:49:41;100304.80;;;32.70
65823;BMP180;52585;47.566;19.056;2022-07-22T13:52:07;100301.60;;;32.70
65823;BMP180;52585;47.566;19.056;2022-07-22T13:54:33;100297.00;;;32.70
65823;BMP180;52585;47.566;19.056;2022-07-22T13:57:00;100299.80;;;32.70
65823;BMP180;52585;47.566;19.056;2022-07-22T13:59:27;100292.20;;;32.74